createdAt,value
2022-07-27T00:00:52.373Z,0.80
2022-07-27T00:03:19.216Z,0.63
2022-07-27T00:05:46.223Z,0.68
2022-07-27T00:08:13.031Z,0.80
2022-07-27T00:10:39.712Z,0.95
2022-07-27T00:13:07.052Z,0.70
2022-07-27T00:15:34.702Z,0.73
2022-07-27T00:18:01.600Z,0.80
2022-07-27T00:20:29.420Z,0.80
2022-07-27T00:22:56.777Z,0.70
2022-07-27T00:25:24.358Z,0.80
2022-07-27T00:27:51.077Z,0.90
2022-07-27T00:30:17.719Z,0.80
2022-07-27T00:32:44.508Z,0.90
2022-07-27T00:35:12.585Z,0.88
2022-07-27T00:37:39.606Z,0.90
2022-07-27T00:40:07.083Z,0.80
2022-07-27T00:42:34.236Z,0.70
2022-07-27T00:45:02.972Z,0.70
2022-07-27T00:47:29.892Z,0.80
2022-07-27T00:49:58.248Z,0.85
2022-07-27T00:52:25.412Z,0.80
2022-07-27T00:54:52.610Z,0.60
2022-07-27T00:57:19.657Z,0.98
2022-07-27T00:59:46.280Z,0.70
2022-07-27T01:02:17.186Z,0.90
2022-07-27T01:04:47.350Z,0.82
2022-07-27T01:07:15.201Z,0.80
2022-07-27T01:09:42.574Z,1.02
2022-07-27T01:12:14.850Z,1.08
2022-07-27T01:14:41.499Z,0.80
2022-07-27T01:17:08.065Z,0.73
2022-07-27T01:19:35.484Z,1.08
2022-07-27T01:22:05.806Z,0.82
2022-07-27T01:24:33.389Z,0.90
2022-07-27T01:27:02.009Z,0.75
2022-07-27T01:29:30.211Z,0.80
2022-07-27T01:31:57.361Z,1.10
2022-07-27T01:34:25.340Z,0.80
2022-07-27T01:36:52.026Z,0.98
2022-07-27T01:39:19.275Z,0.70
2022-07-27T01:41:47.192Z,1.02
2022-07-27T01:44:14.412Z,0.90
2022-07-27T01:46:41.038Z,0.68
2022-07-27T01:49:08.360Z,1.00
2022-07-27T01:51:35.270Z,0.90
2022-07-27T01:54:01.986Z,0.90
2022-07-27T01:56:28.675Z,0.93
2022-07-27T01:58:55.466Z,0.80
2022-07-27T02:01:22.231Z,1.00
2022-07-27T02:03:49.124Z,0.90
2022-07-27T02:06:15.994Z,1.33
2022-07-27T02:08:42.732Z,1.10
2022-07-27T02:11:09.643Z,1.02
2022-07-27T02:13:36.374Z,1.10
2022-07-27T02:16:03.364Z,1.17
2022-07-27T02:18:36.007Z,1.10
2022-07-27T02:21:04.286Z,1.10
2022-07-27T02:23:30.901Z,1.17
2022-07-27T02:25:58.003Z,1.10
2022-07-27T02:28:24.651Z,1.10
2022-07-27T02:30:51.386Z,1.20
2022-07-27T02:33:18.125Z,1.10
2022-07-27T02:35:44.856Z,1.27
2022-07-27T02:38:11.429Z,0.98
2022-07-27T02:40:38.491Z,1.38
2022-07-27T02:43:05.264Z,1.50
2022-07-27T02:45:31.914Z,1.42
2022-07-27T02:47:58.656Z,1.08
2022-07-27T02:50:25.483Z,1.30
2022-07-27T02:52:52.067Z,1.15
2022-07-27T02:55:18.767Z,1.15
2022-07-27T02:57:45.448Z,1.20
2022-07-27T03:00:14.734Z,0.95
2022-07-27T03:02:42.146Z,1.48
2022-07-27T03:05:10.708Z,1.10
2022-07-27T03:07:37.298Z,1.10
2022-07-27T03:10:04.400Z,1.15
2022-07-27T03:12:31.026Z,0.90
2022-07-27T03:14:57.756Z,1.15
2022-07-27T03:17:24.431Z,0.90
2022-07-27T03:19:51.051Z,1.00
2022-07-27T03:22:17.643Z,1.00
2022-07-27T03:24:44.691Z,1.00
2022-07-27T03:27:11.291Z,0.90
2022-07-27T03:29:37.975Z,1.00
2022-07-27T03:32:04.837Z,1.00
2022-07-27T03:34:31.585Z,1.00
2022-07-27T03:36:58.143Z,0.93
2022-07-27T03:39:24.919Z,1.00
2022-07-27T03:42:01.172Z,0.93
2022-07-27T03:44:51.239Z,1.15
2022-07-27T03:47:18.563Z,1.00
2022-07-27T03:49:45.198Z,1.10
2022-07-27T03:52:17.270Z,1.20
2022-07-27T03:54:44.522Z,0.90
2022-07-27T03:57:11.159Z,0.93
2022-07-27T03:59:38.099Z,1.05
2022-07-27T04:02:06.460Z,0.90
2022-07-27T04:04:33.362Z,1.20
2022-07-27T04:07:00.089Z,1.00
2022-07-27T04:09:26.742Z,1.15
2022-07-27T04:11:55.740Z,1.17
2022-07-27T04:14:22.658Z,0.88
2022-07-27T04:16:49.353Z,1.10
2022-07-27T04:19:16.456Z,1.20
2022-07-27T04:21:43.531Z,1.10
2022-07-27T04:24:10.307Z,1.17
2022-07-27T04:26:36.946Z,1.00
2022-07-27T04:29:04.250Z,1.10
2022-07-27T04:31:31.253Z,1.00
2022-07-27T04:33:57.884Z,1.40
2022-07-27T04:36:24.496Z,1.10
2022-07-27T04:38:51.263Z,1.13
2022-07-27T04:41:17.809Z,1.40
2022-07-27T04:43:44.560Z,1.08
2022-07-27T04:46:15.124Z,1.20
2022-07-27T04:48:42.257Z,1.30
2022-07-27T04:51:18.209Z,1.13
2022-07-27T04:53:53.502Z,1.23
2022-07-27T04:56:26.356Z,1.23
2022-07-27T04:58:53.271Z,1.27
2022-07-27T05:01:19.963Z,1.50
2022-07-27T05:03:46.721Z,1.10
2022-07-27T05:06:13.716Z,1.00
2022-07-27T05:08:40.403Z,1.10
2022-07-27T05:11:07.114Z,1.23
2022-07-27T05:13:33.829Z,1.60
2022-07-27T05:16:00.486Z,1.23
2022-07-27T05:18:27.442Z,1.23
2022-07-27T05:20:54.323Z,1.10
2022-07-27T05:23:21.015Z,1.23
2022-07-27T05:25:47.945Z,1.20
2022-07-27T05:28:14.706Z,1.20
2022-07-27T05:30:41.885Z,0.93
2022-07-27T05:33:08.859Z,1.40
2022-07-27T05:35:35.767Z,1.42
2022-07-27T05:38:02.426Z,1.13
2022-07-27T05:40:29.380Z,1.45
2022-07-27T05:42:56.302Z,1.75
2022-07-27T05:45:23.372Z,1.45
2022-07-27T05:47:50.090Z,1.23
2022-07-27T05:50:18.007Z,1.50
2022-07-27T05:52:45.522Z,1.10
2022-07-27T05:55:12.806Z,1.38
2022-07-27T05:57:40.798Z,1.08
2022-07-27T06:00:09.136Z,1.42
2022-07-27T06:02:39.655Z,1.35
2022-07-27T06:05:11.927Z,1.27
2022-07-27T06:07:44.679Z,1.65
2022-07-27T06:10:17.167Z,1.20
2022-07-27T06:12:46.349Z,1.20
2022-07-27T06:15:14.583Z,1.23
2022-07-27T06:17:41.403Z,1.42
2022-07-27T06:20:09.489Z,1.23
2022-07-27T06:22:58.174Z,1.58
2022-07-27T06:25:34.151Z,1.42
2022-07-27T06:28:03.979Z,1.77
2022-07-27T06:30:30.765Z,1.50
2022-07-27T06:32:58.077Z,1.35
2022-07-27T06:35:26.541Z,1.23
2022-07-27T06:37:54.156Z,1.55
2022-07-27T06:40:21.347Z,1.30
2022-07-27T06:42:48.391Z,1.30
2022-07-27T06:45:15.280Z,1.40
2022-07-27T06:47:49.045Z,1.65
2022-07-27T06:50:20.815Z,1.15
2022-07-27T06:52:48.336Z,1.45
2022-07-27T06:55:15.238Z,1.20
2022-07-27T06:57:42.051Z,1.50
2022-07-27T07:00:09.455Z,1.40
2022-07-27T07:02:36.215Z,1.20
2022-07-27T07:05:03.725Z,1.85
2022-07-27T07:07:30.541Z,1.50
2022-07-27T07:09:57.674Z,1.27
2022-07-27T07:12:24.982Z,1.40
2022-07-27T07:14:52.301Z,1.50
2022-07-27T07:17:19.050Z,1.38
2022-07-27T07:19:46.940Z,1.08
2022-07-27T07:22:14.616Z,1.17
2022-07-27T07:24:41.804Z,1.13
2022-07-27T07:27:08.550Z,1.20
2022-07-27T07:29:35.293Z,1.05
2022-07-27T07:32:02.291Z,0.90
2022-07-27T07:34:29.728Z,1.30
2022-07-27T07:36:56.657Z,1.10
2022-07-27T07:39:27.833Z,1.13
2022-07-27T07:41:57.723Z,1.33
2022-07-27T07:44:24.351Z,1.30
2022-07-27T07:46:51.152Z,1.00
2022-07-27T07:49:18.775Z,1.08
2022-07-27T07:52:05.140Z,1.10
2022-07-27T07:54:31.798Z,1.15
2022-07-27T07:56:58.475Z,1.10
2022-07-27T07:59:25.303Z,1.00
2022-07-27T08:01:52.217Z,1.10
2022-07-27T08:04:18.989Z,1.30
2022-07-27T08:06:45.807Z,1.13
2022-07-27T08:09:12.772Z,1.20
2022-07-27T08:11:39.939Z,0.75
2022-07-27T08:14:06.503Z,1.20
2022-07-27T08:16:33.736Z,1.15
2022-07-27T08:19:00.411Z,1.10
2022-07-27T08:21:27.262Z,0.90
2022-07-27T08:23:58.802Z,0.70
2022-07-27T08:26:28.026Z,0.88
2022-07-27T08:28:54.611Z,1.00
2022-07-27T08:31:26.427Z,0.80
2022-07-27T08:34:08.685Z,0.90
2022-07-27T08:36:35.275Z,0.82
2022-07-27T08:39:02.040Z,0.90
2022-07-27T08:41:30.078Z,0.85
2022-07-27T08:43:59.618Z,0.80
2022-07-27T08:46:26.880Z,0.90
2022-07-27T08:48:55.597Z,0.73
2022-07-27T08:51:25.372Z,0.80
2022-07-27T08:53:53.981Z,0.50
2022-07-27T08:56:21.720Z,0.70
2022-07-27T08:58:48.674Z,0.70
2022-07-27T09:01:15.413Z,0.73
2022-07-27T09:03:42.146Z,0.65
2022-07-27T09:06:08.845Z,0.70
2022-07-27T09:08:35.549Z,0.80
2022-07-27T09:11:13.902Z,0.80
2022-07-27T09:13:40.750Z,0.77
2022-07-27T09:16:18.240Z,0.98
2022-07-27T09:18:45.774Z,0.60
2022-07-27T09:21:17.243Z,0.88
2022-07-27T09:23:50.814Z,0.57
2022-07-27T09:26:35.886Z,0.80
2022-07-27T09:29:06.096Z,0.60
2022-07-27T09:31:41.304Z,0.65
2022-07-27T09:34:08.432Z,0.90
2022-07-27T09:36:53.851Z,0.70
2022-07-27T09:39:22.259Z,0.75
2022-07-27T09:41:55.594Z,0.90
2022-07-27T09:44:43.489Z,0.80
2022-07-27T09:47:23.492Z,0.80
2022-07-27T09:49:50.183Z,0.93
2022-07-27T09:52:23.875Z,0.93
2022-07-27T09:54:51.606Z,1.02
2022-07-27T09:57:18.321Z,0.98
2022-07-27T09:59:45.828Z,0.63
2022-07-27T10:02:13.922Z,0.90
2022-07-27T10:04:41.057Z,0.95
2022-07-27T10:07:12.660Z,1.05
2022-07-27T10:09:40.954Z,0.95
2022-07-27T10:12:08.359Z,0.85
2022-07-27T10:14:35.016Z,0.95
2022-07-27T10:17:02.594Z,0.88
2022-07-27T10:19:44.056Z,0.80
2022-07-27T10:22:10.807Z,0.85
2022-07-27T10:24:37.535Z,0.73
2022-07-27T10:27:28.739Z,0.90
2022-07-27T10:29:57.238Z,0.77
2022-07-27T10:32:25.901Z,0.75
2022-07-27T10:34:53.008Z,0.75
2022-07-27T10:37:27.901Z,0.80
2022-07-27T10:39:55.968Z,1.00
2022-07-27T10:42:28.674Z,1.02
2022-07-27T10:44:56.794Z,0.90
2022-07-27T10:47:39.091Z,0.88
2022-07-27T10:50:17.821Z,0.90
2022-07-27T10:52:47.214Z,0.80
2022-07-27T10:55:32.548Z,1.10
2022-07-27T10:58:14.450Z,1.08
2022-07-27T11:00:54.811Z,1.30
2022-07-27T11:03:24.369Z,0.85
2022-07-27T11:06:04.643Z,0.98
2022-07-27T11:08:46.443Z,0.90
2022-07-27T11:11:17.007Z,0.80
2022-07-27T11:13:43.681Z,0.90
2022-07-27T11:16:23.790Z,0.80
2022-07-27T11:19:05.033Z,0.82
2022-07-27T11:21:34.041Z,0.98
2022-07-27T11:24:18.965Z,0.85
2022-07-27T11:26:51.771Z,1.08
2022-07-27T11:29:22.949Z,0.80
2022-07-27T11:31:56.090Z,1.05
2022-07-27T11:34:31.263Z,0.68
2022-07-27T11:36:59.152Z,0.80
2022-07-27T11:42:20.803Z,0.80
2022-07-27T11:44:48.933Z,0.80
2022-07-27T11:47:21.962Z,0.80
2022-07-27T11:49:48.796Z,0.98
2022-07-27T11:52:17.720Z,0.82
2022-07-27T11:54:51.252Z,0.75
2022-07-27T11:57:18.192Z,0.80
2022-07-27T11:59:45.612Z,0.77
2022-07-27T12:02:15.808Z,0.80
2022-07-27T12:04:45.203Z,1.00
2022-07-27T12:07:19.990Z,0.65
2022-07-27T12:09:51.537Z,0.70
2022-07-27T12:12:25.993Z,0.70
2022-07-27T12:15:44.810Z,0.60
2022-07-27T12:18:01.430Z,0.70
2022-07-27T12:20:35.720Z,0.60
2022-07-27T12:23:07.650Z,0.77
2022-07-27T12:25:34.593Z,0.65
2022-07-27T12:28:05.095Z,0.63
2022-07-27T12:30:45.836Z,0.80
2022-07-27T12:33:31.550Z,0.60
2022-07-27T12:36:02.452Z,0.50
2022-07-27T12:38:42.686Z,0.60
2022-07-27T12:41:09.688Z,0.68
2022-07-27T12:43:36.630Z,0.68
2022-07-27T12:46:13.952Z,0.77
2022-07-27T12:48:42.406Z,0.60
2022-07-27T12:51:10.508Z,0.73
2022-07-27T12:53:38.229Z,0.63
2022-07-27T12:56:07.647Z,0.43
2022-07-27T12:58:34.923Z,0.70
2022-07-27T13:01:01.816Z,0.85
2022-07-27T13:03:28.725Z,0.55
2022-07-27T13:05:55.556Z,0.68
2022-07-27T13:08:22.368Z,0.70
2022-07-27T13:10:49.261Z,0.52
2022-07-27T13:13:15.872Z,0.60
2022-07-27T13:15:42.556Z,0.55
2022-07-27T13:18:09.192Z,0.50
2022-07-27T13:20:36.322Z,0.47
2022-07-27T13:23:03.198Z,0.52
2022-07-27T13:25:30.063Z,0.47
2022-07-27T13:27:56.684Z,0.50
2022-07-27T13:30:24.554Z,0.40
2022-07-27T13:32:53.265Z,0.60
2022-07-27T13:35:19.836Z,0.60
2022-07-27T13:37:46.530Z,0.50
2022-07-27T13:40:14.087Z,0.45
2022-07-27T13:42:40.797Z,0.55
2022-07-27T13:45:10.515Z,0.70
2022-07-27T13:47:41.905Z,0.32
2022-07-27T13:50:17.417Z,0.50
2022-07-27T13:52:46.583Z,0.40
2022-07-27T13:55:14.768Z,0.70
2022-07-27T13:57:41.621Z,0.70
2022-07-27T14:00:08.820Z,0.50
2022-07-27T14:02:35.871Z,0.70
2022-07-27T14:05:05.853Z,0.70
2022-07-27T14:07:32.605Z,0.43
2022-07-27T14:09:59.196Z,0.57
2022-07-27T14:12:25.854Z,0.60
2022-07-27T14:14:52.411Z,0.60
2022-07-27T14:17:19.127Z,0.68
2022-07-27T14:19:45.784Z,0.55
2022-07-27T14:22:12.402Z,0.60
2022-07-27T14:24:39.420Z,0.50
2022-07-27T14:27:06.904Z,0.50
2022-07-27T14:29:34.193Z,0.60
2022-07-27T14:32:01.220Z,0.50
2022-07-27T14:34:27.897Z,0.50
2022-07-27T14:36:54.498Z,0.47
2022-07-27T14:39:21.122Z,0.52
2022-07-27T14:41:47.774Z,0.47
2022-07-27T14:44:14.306Z,0.50
2022-07-27T14:46:46.297Z,0.50
2022-07-27T14:49:13.252Z,0.50
2022-07-27T14:51:39.975Z,0.35
2022-07-27T14:54:06.699Z,0.52
2022-07-27T14:56:33.371Z,0.55
2022-07-27T14:58:59.922Z,0.73
2022-07-27T15:01:26.881Z,0.50
2022-07-27T15:03:53.465Z,0.50
2022-07-27T15:06:20.103Z,0.57
2022-07-27T15:08:46.848Z,0.60
2022-07-27T15:11:13.526Z,0.40
2022-07-27T15:13:40.166Z,0.70
2022-07-27T15:16:07.103Z,0.30
2022-07-27T15:18:38.278Z,0.63
2022-07-27T15:21:13.527Z,0.60
2022-07-27T15:23:42.942Z,0.50
2022-07-27T15:26:09.549Z,0.57
2022-07-27T15:28:36.151Z,0.40
2022-07-27T15:31:02.859Z,0.50
2022-07-27T15:33:29.681Z,0.50
2022-07-27T15:35:57.848Z,0.40
2022-07-27T15:38:24.522Z,0.55
2022-07-27T15:40:51.073Z,0.52
2022-07-27T15:43:18.425Z,0.50
2022-07-27T15:45:50.821Z,0.50
2022-07-27T15:48:19.213Z,0.52
2022-07-27T15:50:49.620Z,0.47
2022-07-27T15:53:17.636Z,0.50
2022-07-27T15:55:44.733Z,0.40
2022-07-27T15:58:11.546Z,0.55
2022-07-27T16:00:41.171Z,0.50
2022-07-27T16:03:10.195Z,0.40
2022-07-27T16:05:38.435Z,0.40
2022-07-27T16:08:06.636Z,0.50
2022-07-27T16:10:33.209Z,0.45
2022-07-27T16:12:59.880Z,0.52
2022-07-27T16:15:26.661Z,0.60
2022-07-27T16:17:53.273Z,0.45
2022-07-27T16:20:19.852Z,0.35
2022-07-27T16:22:49.097Z,0.43
2022-07-27T16:25:15.701Z,0.60
2022-07-27T16:27:42.379Z,0.52
2022-07-27T16:30:09.264Z,0.73
2022-07-27T16:32:37.536Z,0.40
2022-07-27T16:35:09.043Z,0.50
2022-07-27T16:37:37.323Z,0.50
2022-07-27T16:40:04.641Z,0.70
2022-07-27T16:42:34.974Z,0.82
2022-07-27T16:45:04.910Z,0.45
2022-07-27T16:47:31.553Z,0.80
2022-07-27T16:49:58.141Z,0.50
2022-07-27T16:52:24.703Z,0.60
2022-07-27T16:54:51.347Z,0.55
2022-07-27T16:57:17.898Z,0.50
2022-07-27T16:59:47.700Z,0.45
2022-07-27T17:02:14.277Z,0.60
2022-07-27T17:04:41.191Z,0.45
2022-07-27T17:07:12.305Z,0.50
2022-07-27T17:09:39.851Z,0.60
2022-07-27T17:12:06.685Z,0.38
2022-07-27T17:14:33.570Z,0.40
2022-07-27T17:17:00.128Z,0.50
2022-07-27T17:19:26.898Z,0.55
2022-07-27T17:21:53.514Z,0.60
2022-07-27T17:24:20.251Z,0.55
2022-07-27T17:26:46.835Z,0.55
2022-07-27T17:29:14.049Z,0.60
2022-07-27T17:31:40.945Z,0.43
2022-07-27T17:34:07.814Z,0.70
2022-07-27T17:36:34.480Z,0.60
2022-07-27T17:39:01.090Z,0.77
2022-07-27T17:41:27.758Z,0.60
2022-07-27T17:43:54.706Z,0.88
2022-07-27T17:46:22.994Z,0.50
2022-07-27T17:48:50.845Z,0.85
2022-07-27T17:51:17.892Z,0.55
2022-07-27T17:53:45.201Z,0.63
2022-07-27T17:56:12.447Z,0.50
2022-07-27T17:58:39.585Z,0.50
2022-07-27T18:01:06.553Z,0.60
2022-07-27T18:03:33.495Z,0.63
2022-07-27T18:06:00.139Z,0.50
2022-07-27T18:08:27.067Z,0.50
2022-07-27T18:10:53.720Z,0.70
2022-07-27T18:13:20.469Z,0.50
2022-07-27T18:15:47.317Z,0.70
2022-07-27T18:18:25.219Z,0.50
2022-07-27T18:20:56.099Z,0.65
2022-07-27T18:23:24.746Z,0.50
2022-07-27T18:25:51.412Z,0.70
2022-07-27T18:28:18.186Z,0.50
2022-07-27T18:30:49.802Z,0.55
2022-07-27T18:33:17.409Z,0.60
2022-07-27T18:35:45.912Z,0.50
2022-07-27T18:38:13.430Z,0.50
2022-07-27T18:40:42.647Z,0.60
2022-07-27T18:43:10.063Z,0.60
2022-07-27T18:45:37.526Z,0.60
2022-07-27T18:48:04.716Z,0.65
2022-07-27T18:50:35.658Z,0.70
2022-07-27T18:53:05.650Z,0.80
2022-07-27T18:55:32.435Z,0.70
2022-07-27T18:57:59.049Z,0.70
2022-07-27T19:00:27.653Z,1.00
2022-07-27T19:02:56.719Z,0.80
2022-07-27T19:05:32.431Z,0.60
2022-07-27T19:08:08.812Z,0.68
2022-07-27T19:10:36.726Z,0.75
2022-07-27T19:13:03.566Z,0.88
2022-07-27T19:15:30.509Z,0.63
2022-07-27T19:18:00.291Z,0.60
2022-07-27T19:20:26.959Z,0.70
2022-07-27T19:22:53.742Z,0.60
2022-07-27T19:25:26.297Z,0.90
2022-07-27T19:27:53.208Z,0.90
2022-07-27T19:30:19.800Z,1.05
2022-07-27T19:32:46.591Z,0.90
2022-07-27T19:35:15.497Z,0.80
2022-07-27T19:37:42.213Z,0.80
2022-07-27T19:40:41.655Z,0.82
2022-07-27T19:42:56.628Z,1.08
2022-07-27T19:45:23.271Z,0.80
2022-07-27T19:47:49.928Z,0.55
2022-07-27T19:50:16.888Z,0.93
2022-07-27T19:52:43.657Z,0.75
2022-07-27T19:55:10.218Z,1.00
2022-07-27T19:57:37.050Z,0.70
2022-07-27T20:00:05.015Z,0.85
2022-07-27T20:02:31.882Z,0.60
2022-07-27T20:04:58.819Z,0.70
2022-07-27T20:07:25.680Z,0.73
2022-07-27T20:09:54.544Z,0.90
2022-07-27T20:12:31.088Z,0.80
2022-07-27T20:15:00.856Z,0.82
2022-07-27T20:17:28.223Z,0.77
2022-07-27T20:19:56.855Z,0.70
2022-07-27T20:22:23.545Z,0.75
2022-07-27T20:24:54.943Z,0.80
2022-07-27T20:27:22.046Z,0.90
2022-07-27T20:29:48.614Z,0.60
2022-07-27T20:32:18.326Z,1.20
2022-07-27T20:34:46.222Z,0.70
2022-07-27T20:37:17.726Z,0.80
2022-07-27T20:39:44.422Z,0.70
2022-07-27T20:42:11.127Z,0.80
2022-07-27T20:44:46.989Z,0.80
2022-07-27T20:47:13.940Z,0.90
2022-07-27T20:49:48.006Z,0.93
2022-07-27T20:52:17.188Z,0.80
2022-07-27T20:54:46.768Z,0.90
2022-07-27T20:57:20.807Z,0.90
2022-07-27T20:59:47.431Z,0.70
2022-07-27T21:02:14.028Z,0.80
2022-07-27T21:04:43.994Z,0.85
2022-07-27T21:07:18.207Z,0.77
2022-07-27T21:09:44.927Z,0.77
2022-07-27T21:12:11.721Z,0.65
2022-07-27T21:14:38.425Z,0.90
2022-07-27T21:17:10.684Z,0.88
2022-07-27T21:19:37.834Z,0.90
2022-07-27T21:22:06.100Z,0.70
2022-07-27T21:24:32.724Z,0.90
2022-07-27T21:27:04.385Z,0.90
2022-07-27T21:29:32.091Z,0.90
2022-07-27T21:31:58.895Z,0.90
2022-07-27T21:34:26.173Z,0.80
2022-07-27T21:36:52.868Z,1.00
2022-07-27T21:39:20.480Z,0.80
2022-07-27T21:41:47.117Z,1.10
2022-07-27T21:44:30.023Z,1.00
2022-07-27T21:47:13.439Z,1.10
2022-07-27T21:49:42.473Z,1.23
2022-07-27T21:52:13.243Z,0.90
2022-07-27T21:54:40.914Z,1.00
2022-07-27T21:57:10.189Z,1.10
2022-07-27T21:59:41.355Z,0.95
2022-07-27T22:02:16.220Z,0.80
2022-07-27T22:04:45.462Z,1.00
2022-07-27T22:07:16.782Z,0.70
2022-07-27T22:09:52.035Z,0.90
2022-07-27T22:12:24.862Z,0.98
2022-07-27T22:15:03.174Z,1.00
2022-07-27T22:17:50.106Z,0.95
2022-07-27T22:20:23.269Z,0.82
2022-07-27T22:22:54.816Z,1.05
2022-07-27T22:25:24.054Z,0.90
2022-07-27T22:27:50.737Z,0.98
2022-07-27T22:30:17.426Z,0.95
2022-07-27T22:32:44.347Z,0.90
2022-07-27T22:35:11.114Z,0.98
2022-07-27T22:37:37.657Z,1.08
2022-07-27T22:40:06.477Z,0.90
2022-07-27T22:42:33.047Z,0.90
2022-07-27T22:44:59.712Z,0.90
2022-07-27T22:47:26.543Z,1.05
2022-07-27T22:49:53.219Z,0.95
2022-07-27T22:52:19.832Z,1.00
2022-07-27T22:54:46.859Z,1.10
2022-07-27T22:57:13.429Z,1.23
2022-07-27T22:59:41.277Z,1.10
2022-07-27T23:02:08.208Z,0.85
2022-07-27T23:04:34.933Z,1.10
2022-07-27T23:07:01.579Z,0.90
2022-07-27T23:09:28.436Z,1.10
2022-07-27T23:11:55.267Z,0.95
2022-07-27T23:14:21.905Z,1.00
2022-07-27T23:16:48.578Z,0.77
2022-07-27T23:19:15.312Z,0.90
2022-07-27T23:21:42.422Z,0.90
2022-07-27T23:24:10.964Z,0.98
2022-07-27T23:26:38.460Z,0.90
2022-07-27T23:29:05.086Z,1.00
2022-07-27T23:31:31.799Z,1.10
2022-07-27T23:33:58.548Z,1.17
2022-07-27T23:36:25.098Z,0.90
2022-07-27T23:38:51.880Z,0.90
2022-07-27T23:41:18.440Z,1.00
2022-07-27T23:43:45.067Z,1.27
2022-07-27T23:46:12.074Z,1.00
2022-07-27T23:48:38.979Z,1.10
2022-07-27T23:51:05.798Z,0.98
2022-07-27T23:53:32.575Z,0.90
2022-07-27T23:55:59.112Z,1.20
2022-07-27T23:58:25.667Z,1.08
